createdAt,value
2023-04-18T00:02:38.982Z,1.22
2023-04-18T00:05:49.817Z,1.85
2023-04-18T00:09:03.282Z,1.25
2023-04-18T00:12:18.248Z,1.27
2023-04-18T00:15:30.923Z,2.20
2023-04-18T00:18:44.804Z,0.90
2023-04-18T00:21:57.870Z,1.65
2023-04-18T00:25:09.402Z,1.07
2023-04-18T00:28:21.158Z,1.22
2023-04-18T00:31:34.197Z,1.52
2023-04-18T00:34:45.068Z,1.52
2023-04-18T00:37:58.256Z,2.00
2023-04-18T00:44:21.532Z,2.42
2023-04-18T00:47:32.805Z,1.45
2023-04-18T00:50:43.752Z,2.15
2023-04-18T00:53:57.996Z,1.80
2023-04-18T00:57:06.620Z,0.88
2023-04-18T01:00:22.525Z,1.80
2023-04-18T01:03:33.091Z,1.85
2023-04-18T01:06:43.148Z,1.77
2023-04-18T01:09:55.918Z,2.35
2023-04-18T01:16:40.964Z,1.40
2023-04-18T01:19:53.427Z,2.92
2023-04-18T01:23:02.783Z,2.67
2023-04-18T01:26:15.374Z,2.75
2023-04-18T01:29:28.506Z,1.82
2023-04-18T01:35:48.644Z,1.17
2023-04-18T01:39:00.577Z,1.02
2023-04-18T01:42:13.949Z,1.02
2023-04-18T01:45:25.413Z,1.35
2023-04-18T01:48:36.478Z,2.08
2023-04-18T01:51:47.756Z,1.12
2023-04-18T01:55:01.773Z,0.88
2023-04-18T01:58:18.735Z,1.42
2023-04-18T02:01:31.051Z,1.35
2023-04-18T02:04:41.460Z,1.27
2023-04-18T02:07:52.563Z,1.60
2023-04-18T02:11:02.007Z,1.40
2023-04-18T02:14:16.414Z,1.57
2023-04-18T02:17:29.200Z,0.95
2023-04-18T02:20:41.857Z,0.80
2023-04-18T02:23:53.703Z,1.25
2023-04-18T02:27:05.635Z,0.80
2023-04-18T02:30:22.596Z,1.20
2023-04-18T02:33:34.359Z,0.95
2023-04-18T02:36:46.213Z,1.72
2023-04-18T02:39:57.110Z,1.80
2023-04-18T02:43:11.962Z,1.42
2023-04-18T02:46:20.898Z,1.82
2023-04-18T02:49:34.926Z,0.82
2023-04-18T02:52:46.803Z,0.93
2023-04-18T02:55:58.415Z,1.15
2023-04-18T02:59:10.588Z,1.42
2023-04-18T03:02:22.479Z,0.77
2023-04-18T03:05:32.046Z,2.15
2023-04-18T03:08:44.448Z,0.95
2023-04-18T03:11:56.102Z,1.40
2023-04-18T03:15:06.232Z,0.70
2023-04-18T03:18:22.103Z,1.15
2023-04-18T03:21:31.983Z,1.02
2023-04-18T03:24:43.562Z,1.62
2023-04-18T03:27:56.148Z,0.75
2023-04-18T03:31:07.639Z,0.93
2023-04-18T03:34:19.782Z,0.80
2023-04-18T03:37:31.573Z,1.07
2023-04-18T03:40:44.722Z,1.17
2023-04-18T03:47:10.546Z,1.27
2023-04-18T03:50:23.886Z,0.95
2023-04-18T03:53:33.391Z,0.90
2023-04-18T03:56:44.894Z,1.25
2023-04-18T03:59:54.777Z,1.05
2023-04-18T04:03:06.230Z,0.88
2023-04-18T04:06:15.480Z,0.55
2023-04-18T04:09:26.940Z,0.80
2023-04-18T04:12:38.368Z,0.70
2023-04-18T04:15:45.934Z,0.98
2023-04-18T04:18:58.144Z,1.25
2023-04-18T04:22:12.124Z,0.97
2023-04-18T04:25:27.600Z,0.88
2023-04-18T04:28:39.577Z,0.70
2023-04-18T04:31:53.565Z,1.10
2023-04-18T04:35:05.277Z,0.95
2023-04-18T04:38:17.244Z,0.75
2023-04-18T04:41:28.367Z,1.17
2023-04-18T04:44:38.144Z,0.78
2023-04-18T04:47:47.514Z,0.70
2023-04-18T04:51:03.794Z,1.45
2023-04-18T04:54:14.498Z,0.85
2023-04-18T04:57:23.923Z,0.93
2023-04-18T05:00:37.041Z,0.82
2023-04-18T05:03:48.645Z,1.25
2023-04-18T05:07:01.522Z,1.30
2023-04-18T05:10:16.400Z,1.02
2023-04-18T05:13:30.400Z,1.00
2023-04-18T05:16:42.069Z,0.68
2023-04-18T05:19:56.775Z,0.68
2023-04-18T05:23:07.323Z,0.57
2023-04-18T05:26:19.949Z,1.00
2023-04-18T05:29:30.392Z,0.60
2023-04-18T05:32:40.670Z,0.90
2023-04-18T05:35:54.682Z,0.93
2023-04-18T05:39:06.990Z,0.78
2023-04-18T05:42:16.333Z,0.70
2023-04-18T05:45:30.416Z,0.88
2023-04-18T05:48:40.059Z,0.60
2023-04-18T05:51:51.713Z,0.50
2023-04-18T05:55:05.461Z,0.47
2023-04-18T05:58:16.415Z,1.00
2023-04-18T06:01:28.152Z,0.65
2023-04-18T06:04:38.866Z,0.82
2023-04-18T06:11:09.350Z,0.63
2023-04-18T06:14:19.734Z,0.55
2023-04-18T06:17:29.524Z,0.80
2023-04-18T06:20:39.152Z,0.50
2023-04-18T06:23:51.148Z,0.60
2023-04-18T06:27:02.636Z,0.70
2023-04-18T06:30:15.237Z,0.62
2023-04-18T06:33:27.147Z,0.75
2023-04-18T06:36:39.254Z,0.62
2023-04-18T06:39:49.542Z,1.12
2023-04-18T06:43:02.488Z,0.60
2023-04-18T06:46:13.895Z,0.90
2023-04-18T06:49:26.647Z,0.85
2023-04-18T06:52:41.451Z,0.57
2023-04-18T06:55:52.617Z,0.60
2023-04-18T06:59:04.693Z,0.70
2023-04-18T07:02:14.486Z,0.95
2023-04-18T07:05:24.802Z,0.40
2023-04-18T07:08:38.434Z,0.78
2023-04-18T07:11:53.150Z,0.85
2023-04-18T07:15:05.376Z,0.90
2023-04-18T07:18:30.323Z,0.80
2023-04-18T07:21:32.993Z,0.65
2023-04-18T07:24:45.643Z,0.80
2023-04-18T07:31:14.281Z,0.70
2023-04-18T07:34:29.687Z,1.10
2023-04-18T07:37:42.454Z,0.60
2023-04-18T07:40:54.532Z,1.32
2023-04-18T07:44:08.514Z,0.75
2023-04-18T07:47:22.651Z,0.85
2023-04-18T07:50:34.913Z,1.25
2023-04-18T07:53:47.532Z,0.98
2023-04-18T07:56:59.983Z,0.60
2023-04-18T08:00:17.362Z,0.93
2023-04-18T08:03:28.307Z,0.90
2023-04-18T08:06:41.398Z,0.93
2023-04-18T08:09:54.809Z,0.70
2023-04-18T08:13:06.112Z,0.70
2023-04-18T08:16:19.873Z,0.88
2023-04-18T08:19:28.115Z,0.60
2023-04-18T08:22:50.054Z,1.02
2023-04-18T08:25:50.564Z,0.90
2023-04-18T08:29:03.005Z,0.98
2023-04-18T08:32:14.080Z,1.00
2023-04-18T08:35:26.111Z,0.68
2023-04-18T08:38:39.445Z,0.88
2023-04-18T08:44:59.983Z,0.85
2023-04-18T08:48:09.912Z,1.02
2023-04-18T08:51:23.237Z,1.00
2023-04-18T08:54:38.863Z,1.02
2023-04-18T08:57:51.052Z,1.30
2023-04-18T09:01:02.968Z,0.82
2023-04-18T09:04:15.532Z,0.82
2023-04-18T09:07:30.767Z,0.72
2023-04-18T09:10:46.654Z,0.93
2023-04-18T09:14:01.165Z,0.80
2023-04-18T09:17:14.858Z,0.88
2023-04-18T09:20:39.465Z,0.78
2023-04-18T09:23:52.562Z,0.60
2023-04-18T09:27:05.634Z,0.70
2023-04-18T09:30:21.183Z,1.05
2023-04-18T09:33:36.050Z,0.80
2023-04-18T09:36:47.513Z,0.88
2023-04-18T09:39:59.876Z,0.70
2023-04-18T09:43:25.142Z,0.80
2023-04-18T09:46:36.233Z,0.80
2023-04-18T09:49:47.651Z,0.60
2023-04-18T09:52:58.639Z,0.90
2023-04-18T09:56:14.000Z,0.82
2023-04-18T09:59:30.304Z,0.85
2023-04-18T10:02:49.683Z,0.80
2023-04-18T10:06:03.454Z,0.88
2023-04-18T10:09:16.277Z,1.07
2023-04-18T10:12:30.669Z,1.05
2023-04-18T10:15:44.395Z,0.90
2023-04-18T10:18:57.373Z,0.82
2023-04-18T10:22:09.019Z,0.68
2023-04-18T10:25:21.446Z,1.10
2023-04-18T10:28:33.642Z,0.57
2023-04-18T10:31:44.601Z,0.70
2023-04-18T10:34:55.319Z,0.60
2023-04-18T10:38:09.514Z,0.60
2023-04-18T10:41:27.474Z,1.10
2023-04-18T10:44:39.556Z,0.85
2023-04-18T10:47:50.401Z,0.57
2023-04-18T10:51:22.580Z,0.60
2023-04-18T10:54:36.451Z,0.42
2023-04-18T10:57:53.319Z,0.50
2023-04-18T11:01:03.068Z,0.60
2023-04-18T11:04:23.438Z,0.60
2023-04-18T11:07:38.189Z,0.60
2023-04-18T11:10:52.479Z,0.50
2023-04-18T11:14:03.700Z,0.60
2023-04-18T11:17:24.322Z,0.60
2023-04-18T11:20:38.150Z,0.45
2023-04-18T11:23:52.720Z,0.82
2023-04-18T11:27:02.689Z,0.80
2023-04-18T11:30:15.902Z,0.68
2023-04-18T11:33:27.329Z,1.00
2023-04-18T11:36:40.688Z,1.05
2023-04-18T11:43:03.497Z,0.90
2023-04-18T11:46:14.446Z,0.78
2023-04-18T11:49:35.973Z,0.55
2023-04-18T11:52:44.404Z,0.82
2023-04-18T11:56:04.107Z,0.72
2023-04-18T11:59:17.246Z,0.57
2023-04-18T12:02:30.511Z,0.60
2023-04-18T12:08:52.995Z,0.90
2023-04-18T12:12:05.497Z,0.57
2023-04-18T12:15:20.467Z,0.30
2023-04-18T12:18:32.495Z,0.40
2023-04-18T12:21:47.309Z,0.62
2023-04-18T12:25:29.539Z,0.70
2023-04-18T12:28:40.475Z,0.50
2023-04-18T12:31:52.516Z,0.30
2023-04-18T12:35:05.542Z,0.72
2023-04-18T12:38:17.180Z,0.90
2023-04-18T12:41:28.168Z,0.82
2023-04-18T12:44:42.909Z,1.75
2023-04-18T12:47:56.553Z,0.88
2023-04-18T12:51:09.269Z,0.42
2023-04-18T12:54:19.605Z,0.82
2023-04-18T12:57:30.543Z,0.98
2023-04-18T13:00:44.363Z,0.42
2023-04-18T13:04:08.374Z,0.50
2023-04-18T13:10:23.270Z,0.42
2023-04-18T13:13:35.179Z,0.57
2023-04-18T13:16:47.153Z,0.60
2023-04-18T13:19:58.910Z,0.75
2023-04-18T13:23:13.182Z,0.82
2023-04-18T13:26:23.411Z,0.90
2023-04-18T13:29:33.483Z,0.53
2023-04-18T13:32:46.207Z,0.40
2023-04-18T13:35:57.897Z,0.45
2023-04-18T13:39:09.777Z,0.82
2023-04-18T13:42:21.303Z,0.40
2023-04-18T13:45:31.391Z,0.50
2023-04-18T13:48:46.043Z,0.65
2023-04-18T13:51:58.942Z,0.93
2023-04-18T13:55:09.981Z,0.53
2023-04-18T13:58:22.822Z,0.65
2023-04-18T14:01:33.667Z,0.40
2023-04-18T14:04:42.137Z,0.40
2023-04-18T14:07:51.032Z,0.37
2023-04-18T14:11:05.332Z,0.40
2023-04-18T14:14:17.058Z,0.30
2023-04-18T14:17:28.433Z,0.40
2023-04-18T14:20:40.241Z,0.60
2023-04-18T14:23:52.083Z,0.55
2023-04-18T14:27:03.443Z,0.60
2023-04-18T14:30:20.110Z,0.42
2023-04-18T14:33:31.547Z,0.30
2023-04-18T14:36:41.087Z,1.00
2023-04-18T14:39:51.940Z,0.65
2023-04-18T14:43:03.401Z,0.55
2023-04-18T14:46:22.431Z,0.42
2023-04-18T14:49:33.124Z,0.40
2023-04-18T14:52:45.139Z,0.50
2023-04-18T14:55:57.019Z,0.40
2023-04-18T14:59:06.532Z,0.30
2023-04-18T15:02:16.919Z,0.30
2023-04-18T15:05:29.513Z,0.40
2023-04-18T15:08:40.234Z,0.37
2023-04-18T15:11:50.560Z,0.53
2023-04-18T15:15:01.136Z,0.33
2023-04-18T15:18:13.172Z,0.30
2023-04-18T15:21:26.255Z,0.40
2023-04-18T15:24:39.727Z,0.68
2023-04-18T15:27:49.384Z,0.35
2023-04-18T15:30:57.620Z,0.30
2023-04-18T15:34:07.892Z,0.53
2023-04-18T15:37:18.846Z,0.30
2023-04-18T15:40:34.662Z,0.60
2023-04-18T15:43:47.115Z,0.40
2023-04-18T15:47:03.088Z,0.50
2023-04-18T15:50:17.123Z,0.60
2023-04-18T15:53:27.220Z,0.30
2023-04-18T15:56:40.173Z,0.47
2023-04-18T15:59:49.812Z,0.33
2023-04-18T16:03:02.380Z,0.40
2023-04-18T16:06:15.729Z,0.40
2023-04-18T16:12:32.422Z,0.75
2023-04-18T16:15:46.515Z,0.88
2023-04-18T16:18:58.335Z,0.75
2023-04-18T16:22:08.928Z,0.90
2023-04-18T16:25:19.987Z,0.70
2023-04-18T16:28:31.252Z,0.35
2023-04-18T16:31:45.980Z,0.50
2023-04-18T16:34:54.749Z,0.50
2023-04-18T16:38:06.706Z,0.37
2023-04-18T16:41:18.393Z,1.45
2023-04-18T16:44:30.017Z,0.40
2023-04-18T16:47:38.713Z,0.30
2023-04-18T16:50:52.135Z,0.47
2023-04-18T16:54:01.576Z,1.02
2023-04-18T16:57:12.337Z,0.60
2023-04-18T17:00:24.521Z,0.70
2023-04-18T17:03:33.627Z,0.50
2023-04-18T17:06:48.836Z,0.30
2023-04-18T17:10:02.811Z,0.40
2023-04-18T17:13:12.870Z,0.30
2023-04-18T17:16:23.337Z,0.60
2023-04-18T17:19:34.996Z,0.50
2023-04-18T17:22:49.008Z,0.35
2023-04-18T17:25:57.202Z,0.30
2023-04-18T17:29:08.802Z,0.30
2023-04-18T17:32:20.234Z,0.30
2023-04-18T17:35:34.226Z,0.30
2023-04-18T17:38:44.326Z,0.28
2023-04-18T17:41:55.950Z,0.33
2023-04-18T17:45:10.769Z,0.42
2023-04-18T17:48:22.595Z,0.47
2023-04-18T17:51:32.371Z,0.60
2023-04-18T17:54:42.279Z,0.40
2023-04-18T17:57:52.314Z,0.45
2023-04-18T18:01:02.689Z,0.30
2023-04-18T18:04:10.686Z,0.25
2023-04-18T18:07:23.098Z,0.60
2023-04-18T18:10:37.046Z,0.30
2023-04-18T18:13:54.042Z,0.30
2023-04-18T18:17:05.348Z,0.57
2023-04-18T18:20:20.707Z,0.40
2023-04-18T18:23:32.534Z,0.40
2023-04-18T18:26:44.634Z,0.42
2023-04-18T18:29:55.932Z,0.20
2023-04-18T18:33:07.290Z,0.75
2023-04-18T18:36:18.533Z,0.40
2023-04-18T18:39:30.852Z,0.40
2023-04-18T18:42:40.360Z,0.30
2023-04-18T18:45:56.207Z,0.30
2023-04-18T18:49:10.383Z,0.30
2023-04-18T18:52:23.652Z,0.30
2023-04-18T18:55:34.454Z,0.50
2023-04-18T19:02:02.718Z,0.33
2023-04-18T19:05:18.574Z,0.40
2023-04-18T19:08:30.254Z,0.50
2023-04-18T19:11:41.227Z,0.40
2023-04-18T19:14:54.138Z,0.40
2023-04-18T19:18:02.498Z,0.28
2023-04-18T19:21:11.054Z,0.30
2023-04-18T19:24:21.565Z,0.65
2023-04-18T19:27:33.175Z,0.60
2023-04-18T19:30:44.421Z,0.45
2023-04-18T19:33:55.753Z,0.30
2023-04-18T19:37:06.199Z,0.30
2023-04-18T19:40:20.408Z,0.30
2023-04-18T19:43:34.075Z,0.45
2023-04-18T19:46:49.234Z,0.30
2023-04-18T19:50:00.501Z,0.25
2023-04-18T19:53:16.214Z,0.40
2023-04-18T19:56:27.946Z,0.30
2023-04-18T19:59:41.129Z,0.40
2023-04-18T20:06:02.528Z,0.75
2023-04-18T20:09:14.171Z,0.72
2023-04-18T20:12:25.372Z,0.30
2023-04-18T20:15:38.620Z,0.57
2023-04-18T20:18:54.675Z,0.30
2023-04-18T20:22:02.676Z,0.88
2023-04-18T20:25:15.233Z,0.65
2023-04-18T20:28:27.234Z,0.82
2023-04-18T20:31:41.540Z,0.70
2023-04-18T20:34:51.983Z,0.80
2023-04-18T20:38:04.192Z,0.60
2023-04-18T20:41:16.584Z,0.57
2023-04-18T20:44:25.473Z,1.35
2023-04-18T20:47:35.263Z,0.68
2023-04-18T20:50:48.874Z,1.00
2023-04-18T20:54:01.422Z,0.65
2023-04-18T20:57:11.908Z,0.65
2023-04-18T21:00:23.607Z,0.82
2023-04-18T21:03:35.108Z,0.65
2023-04-18T21:06:46.774Z,0.40
2023-04-18T21:10:01.384Z,0.50
2023-04-18T21:13:13.188Z,0.55
2023-04-18T21:16:27.169Z,0.30
2023-04-18T21:19:38.691Z,0.65
2023-04-18T21:22:51.817Z,0.20
2023-04-18T21:29:28.414Z,0.50
2023-04-18T21:32:39.559Z,0.60
2023-04-18T21:35:51.101Z,0.50
2023-04-18T21:39:02.834Z,0.60
2023-04-18T21:42:10.349Z,0.70
2023-04-18T21:45:21.836Z,0.70
2023-04-18T21:48:31.793Z,0.95
2023-04-18T21:51:41.280Z,0.40
2023-04-18T21:54:51.153Z,0.72
2023-04-18T21:58:04.647Z,1.05
2023-04-18T22:01:16.094Z,1.55
2023-04-18T22:04:26.836Z,2.87
2023-04-18T22:07:43.318Z,2.77
2023-04-18T22:10:46.387Z,1.80
2023-04-18T22:13:57.683Z,1.32
2023-04-18T22:17:09.882Z,1.60
2023-04-18T22:20:23.971Z,1.10
2023-04-18T22:23:33.399Z,1.42
2023-04-18T22:26:42.567Z,0.60
2023-04-18T22:29:54.391Z,1.47
2023-04-18T22:33:04.153Z,0.70
2023-04-18T22:36:17.781Z,0.78
2023-04-18T22:39:28.216Z,0.80
2023-04-18T22:42:38.726Z,0.82
2023-04-18T22:45:50.594Z,0.68
2023-04-18T22:49:00.120Z,0.70
2023-04-18T22:52:10.780Z,1.02
2023-04-18T22:55:22.474Z,0.90
2023-04-18T22:58:33.855Z,0.68
2023-04-18T23:01:44.839Z,0.90
2023-04-18T23:04:58.461Z,0.50
2023-04-18T23:08:09.946Z,0.70
2023-04-18T23:11:21.799Z,0.75
2023-04-18T23:14:31.299Z,0.68
2023-04-18T23:17:42.846Z,0.62
2023-04-18T23:20:50.719Z,0.40
2023-04-18T23:24:04.706Z,0.50
2023-04-18T23:27:14.345Z,0.75
2023-04-18T23:30:24.355Z,1.30
2023-04-18T23:33:35.816Z,1.42
2023-04-18T23:36:49.300Z,0.90
2023-04-18T23:39:58.795Z,1.10
2023-04-18T23:43:07.417Z,1.37
2023-04-18T23:46:15.684Z,1.47
2023-04-18T23:49:27.228Z,2.05
2023-04-18T23:52:40.014Z,0.82
2023-04-18T23:55:51.074Z,1.47
2023-04-18T23:59:02.459Z,1.35
